createdAt,value
2023-04-26T00:00:29.200Z,98726.47
2023-04-26T00:01:31.768Z,98733.44
2023-04-26T00:02:35.509Z,98732.39
2023-04-26T00:03:40.031Z,98733.55
2023-04-26T00:04:42.850Z,98728.52
2023-04-26T00:05:45.367Z,98731.13
2023-04-26T00:06:49.852Z,98733.02
2023-04-26T00:07:53.158Z,98733.02
2023-04-26T00:08:55.819Z,98731.53
2023-04-26T00:10:00.197Z,98728.85
2023-04-26T00:11:02.975Z,98737.78
2023-04-26T00:12:07.643Z,98731.53
2023-04-26T00:13:10.753Z,98731.75
2023-04-26T00:14:13.227Z,98732.39
2023-04-26T00:15:15.690Z,98733.20
2023-04-26T00:16:19.606Z,98735.81
2023-04-26T00:17:24.807Z,98737.78
2023-04-26T00:18:27.267Z,98739.34
2023-04-26T00:19:29.513Z,98742.75
2023-04-26T00:20:32.405Z,98746.58
2023-04-26T00:21:34.968Z,98738.23
2023-04-26T00:22:37.300Z,98746.27
2023-04-26T00:23:41.365Z,98745.23
2023-04-26T00:24:43.827Z,98744.37
2023-04-26T00:25:46.061Z,98745.30
2023-04-26T00:26:48.348Z,98751.25
2023-04-26T00:27:51.927Z,98751.25
2023-04-26T00:28:54.418Z,98748.94
2023-04-26T00:29:57.389Z,98742.80
2023-04-26T00:31:00.044Z,98739.67
2023-04-26T00:32:03.660Z,98739.67
2023-04-26T00:33:06.114Z,98735.61
2023-04-26T00:34:08.493Z,98735.61
2023-04-26T00:35:11.341Z,98745.63
2023-04-26T00:36:16.694Z,98740.59
2023-04-26T00:37:19.076Z,98740.59
2023-04-26T00:38:21.916Z,98743.02
2023-04-26T00:39:24.654Z,98748.02
2023-04-26T00:40:27.470Z,98749.34
2023-04-26T00:41:29.995Z,98744.73
2023-04-26T00:42:32.807Z,98742.20
2023-04-26T00:43:35.651Z,98741.92
2023-04-26T00:44:40.379Z,98749.63
2023-04-26T00:45:43.366Z,98749.94
2023-04-26T00:46:47.375Z,98744.91
2023-04-26T00:47:51.097Z,98748.34
2023-04-26T00:48:54.712Z,98741.49
2023-04-26T00:49:57.776Z,98742.42
2023-04-26T00:51:00.862Z,98748.09
2023-04-26T00:52:04.004Z,98746.98
2023-04-26T00:53:07.852Z,98745.30
2023-04-26T00:54:10.517Z,98746.98
2023-04-26T00:55:15.780Z,98748.66
2023-04-26T00:56:20.754Z,98749.05
2023-04-26T00:57:23.333Z,98746.23
2023-04-26T00:58:26.209Z,98747.91
2023-04-26T00:59:28.740Z,98747.70
2023-04-26T01:00:30.934Z,98748.02
2023-04-26T01:01:34.443Z,98743.84
2023-04-26T01:02:37.958Z,98753.14
2023-04-26T01:03:43.741Z,98747.66
2023-04-26T01:04:47.663Z,98747.76
2023-04-26T01:05:50.434Z,98750.16
2023-04-26T01:06:54.337Z,98750.16
2023-04-26T01:07:57.267Z,98749.22
2023-04-26T01:09:05.532Z,98748.30
2023-04-26T01:10:09.457Z,98745.70
2023-04-26T01:11:12.467Z,98746.44
2023-04-26T01:12:15.066Z,98741.23
2023-04-26T01:13:18.663Z,98744.41
2023-04-26T01:14:23.223Z,98742.34
2023-04-26T01:15:27.682Z,98745.70
2023-04-26T01:16:31.038Z,98736.96
2023-04-26T01:17:34.606Z,98743.63
2023-04-26T01:18:37.059Z,98744.56
2023-04-26T01:19:47.894Z,98746.98
2023-04-26T01:20:51.955Z,98743.63
2023-04-26T01:21:54.727Z,98750.69
2023-04-26T01:22:57.283Z,98742.34
2023-04-26T01:23:59.741Z,98742.34
2023-04-26T01:25:06.135Z,98740.49
2023-04-26T01:26:09.017Z,98744.02
2023-04-26T01:27:12.423Z,98735.47
2023-04-26T01:28:16.289Z,98741.59
2023-04-26T01:29:20.396Z,98741.80
2023-04-26T01:30:22.702Z,98739.20
2023-04-26T01:31:25.562Z,98735.10
2023-04-26T01:32:27.842Z,98734.38
2023-04-26T01:33:32.259Z,98733.53
2023-04-26T01:34:34.477Z,98733.64
2023-04-26T01:35:36.695Z,98736.98
2023-04-26T01:36:39.570Z,98731.68
2023-04-26T01:37:42.823Z,98732.89
2023-04-26T01:38:45.512Z,98732.89
2023-04-26T01:39:47.731Z,98728.44
2023-04-26T01:40:50.472Z,98729.36
2023-04-26T01:41:52.926Z,98727.61
2023-04-26T01:42:55.542Z,98727.69
2023-04-26T01:43:58.252Z,98732.89
2023-04-26T01:45:00.756Z,98726.76
2023-04-26T01:46:05.442Z,98728.54
2023-04-26T01:47:08.317Z,98731.89
2023-04-26T01:48:10.530Z,98725.02
2023-04-26T01:49:12.773Z,98733.73
2023-04-26T01:50:15.703Z,98729.19
2023-04-26T01:51:17.929Z,98727.50
2023-04-26T01:52:21.026Z,98727.69
2023-04-26T01:53:23.318Z,98728.64
2023-04-26T01:54:25.600Z,98724.16
2023-04-26T01:55:28.544Z,98730.39
2023-04-26T01:56:30.964Z,98726.04
2023-04-26T01:57:34.287Z,98723.80
2023-04-26T01:58:36.505Z,98726.32
2023-04-26T01:59:39.148Z,98731.31
2023-04-26T02:00:41.602Z,98720.84
2023-04-26T02:01:44.041Z,98729.56
2023-04-26T02:02:46.399Z,98724.16
2023-04-26T02:03:48.880Z,98725.55
2023-04-26T02:04:50.889Z,98725.27
2023-04-26T02:05:53.784Z,98718.92
2023-04-26T02:06:56.801Z,98729.69
2023-04-26T02:08:00.191Z,98729.41
2023-04-26T02:09:02.968Z,98723.45
2023-04-26T02:10:06.685Z,98725.52
2023-04-26T02:11:10.010Z,98718.00
2023-04-26T02:12:12.594Z,98726.34
2023-04-26T02:13:15.266Z,98724.48
2023-04-26T02:14:18.469Z,98727.84
2023-04-26T02:15:21.361Z,98725.95
2023-04-26T02:16:25.068Z,98721.78
2023-04-26T02:17:28.690Z,98721.89
2023-04-26T02:18:31.084Z,98721.34
2023-04-26T02:19:33.830Z,98721.34
2023-04-26T02:20:37.425Z,98727.09
2023-04-26T02:21:57.747Z,98723.56
2023-04-26T02:23:00.150Z,98726.98
2023-04-26T02:24:02.367Z,98727.63
2023-04-26T02:25:07.600Z,98730.97
2023-04-26T02:26:11.569Z,98729.83
2023-04-26T02:27:13.772Z,98725.38
2023-04-26T02:28:16.535Z,98724.45
2023-04-26T02:29:21.237Z,98727.05
2023-04-26T02:30:23.913Z,98736.82
2023-04-26T02:31:27.552Z,98729.66
2023-04-26T02:32:30.954Z,98729.76
2023-04-26T02:33:33.442Z,98728.16
2023-04-26T02:34:37.349Z,98728.16
2023-04-26T02:35:40.111Z,98724.92
2023-04-26T02:36:42.540Z,98720.42
2023-04-26T02:37:46.516Z,98720.42
2023-04-26T02:38:48.898Z,98721.78
2023-04-26T02:39:51.638Z,98726.80
2023-04-26T02:41:03.814Z,98724.28
2023-04-26T02:42:10.502Z,98729.83
2023-04-26T02:43:12.934Z,98725.38
2023-04-26T02:44:15.193Z,98733.36
2023-04-26T02:45:17.621Z,98723.70
2023-04-26T02:46:22.866Z,98724.09
2023-04-26T02:47:24.977Z,98725.55
2023-04-26T02:48:27.561Z,98731.72
2023-04-26T02:49:30.758Z,98729.41
2023-04-26T02:50:33.144Z,98725.55
2023-04-26T02:51:35.789Z,98733.36
2023-04-26T02:52:38.449Z,98723.98
2023-04-26T02:53:40.674Z,98729.02
2023-04-26T02:54:42.925Z,98719.77
2023-04-26T02:55:45.649Z,98727.93
2023-04-26T02:56:49.058Z,98717.52
2023-04-26T02:57:51.330Z,98718.58
2023-04-26T02:58:53.618Z,98717.45
2023-04-26T02:59:57.130Z,98717.64
2023-04-26T03:01:01.570Z,98709.02
2023-04-26T03:02:04.505Z,98711.21
2023-04-26T03:03:07.121Z,98712.97
2023-04-26T03:04:09.876Z,98715.19
2023-04-26T03:05:13.118Z,98713.23
2023-04-26T03:06:15.938Z,98711.97
2023-04-26T03:07:18.047Z,98713.30
2023-04-26T03:08:22.346Z,98705.72
2023-04-26T03:09:25.228Z,98694.25
2023-04-26T03:10:28.212Z,98704.38
2023-04-26T03:11:30.493Z,98703.33
2023-04-26T03:12:32.833Z,98703.25
2023-04-26T03:13:35.844Z,98696.77
2023-04-26T03:14:38.214Z,98698.03
2023-04-26T03:15:45.992Z,98694.08
2023-04-26T03:16:48.701Z,98698.05
2023-04-26T03:17:51.738Z,98702.05
2023-04-26T03:18:54.455Z,98717.27
2023-04-26T03:19:57.175Z,98699.73
2023-04-26T03:21:00.786Z,98702.67
2023-04-26T03:22:03.458Z,98703.50
2023-04-26T03:23:06.056Z,98701.83
2023-04-26T03:24:08.400Z,98701.41
2023-04-26T03:25:10.759Z,98703.59
2023-04-26T03:26:13.874Z,98708.61
2023-04-26T03:27:16.527Z,98701.72
2023-04-26T03:28:19.532Z,98707.44
2023-04-26T03:29:22.183Z,98705.37
2023-04-26T03:30:25.472Z,98704.52
2023-04-26T03:31:27.830Z,98710.70
2023-04-26T03:32:32.526Z,98703.59
2023-04-26T03:33:34.882Z,98700.35
2023-04-26T03:34:37.199Z,98704.23
2023-04-26T03:35:39.844Z,98699.73
2023-04-26T03:36:42.309Z,98706.42
2023-04-26T03:37:44.819Z,98702.03
2023-04-26T03:38:48.353Z,98714.45
2023-04-26T03:39:53.265Z,98702.63
2023-04-26T03:40:56.636Z,98709.13
2023-04-26T03:42:00.013Z,98713.92
2023-04-26T03:43:02.577Z,98715.17
2023-04-26T03:44:05.053Z,98718.10
2023-04-26T03:45:09.349Z,98715.17
2023-04-26T03:46:11.894Z,98719.33
2023-04-26T03:47:15.358Z,98719.20
2023-04-26T03:48:17.946Z,98722.64
2023-04-26T03:49:20.730Z,98719.10
2023-04-26T03:50:23.246Z,98727.02
2023-04-26T03:51:26.943Z,98716.21
2023-04-26T03:52:29.291Z,98723.61
2023-04-26T03:53:32.022Z,98724.35
2023-04-26T03:54:36.661Z,98725.80
2023-04-26T03:55:39.127Z,98720.28
2023-04-26T03:56:41.484Z,98721.76
2023-04-26T03:57:44.757Z,98734.79
2023-04-26T03:58:47.170Z,98724.02
2023-04-26T03:59:49.415Z,98726.86
2023-04-26T04:00:52.358Z,98724.86
2023-04-26T04:01:55.011Z,98729.68
2023-04-26T04:02:57.998Z,98725.80
2023-04-26T04:04:02.568Z,98725.61
2023-04-26T04:05:05.817Z,98723.52
2023-04-26T04:06:08.612Z,98727.48
2023-04-26T04:07:10.761Z,98724.67
2023-04-26T04:08:13.021Z,98722.06
2023-04-26T04:09:16.097Z,98723.00
2023-04-26T04:10:18.910Z,98715.80
2023-04-26T04:11:22.930Z,98719.97
2023-04-26T04:12:26.760Z,98726.96
2023-04-26T04:13:29.144Z,98723.48
2023-04-26T04:14:31.860Z,98728.26
2023-04-26T04:15:34.241Z,98720.36
2023-04-26T04:16:37.192Z,98731.39
2023-04-26T04:17:39.877Z,98724.91
2023-04-26T04:18:42.662Z,98721.56
2023-04-26T04:19:45.974Z,98720.22
2023-04-26T04:20:48.275Z,98721.34
2023-04-26T04:21:52.254Z,98718.03
2023-04-26T04:22:55.614Z,98714.93
2023-04-26T04:23:57.937Z,98713.15
2023-04-26T04:25:00.929Z,98705.96
2023-04-26T04:26:03.968Z,98702.83
2023-04-26T04:27:06.340Z,98703.26
2023-04-26T04:28:09.313Z,98704.73
2023-04-26T04:29:12.317Z,98692.88
2023-04-26T04:30:15.953Z,98694.94
2023-04-26T04:31:18.837Z,98693.70
2023-04-26T04:32:23.156Z,98699.42
2023-04-26T04:33:27.647Z,98696.84
2023-04-26T04:34:36.402Z,98698.16
2023-04-26T04:35:42.037Z,98704.03
2023-04-26T04:36:46.690Z,98696.50
2023-04-26T04:37:50.002Z,98694.72
2023-04-26T04:38:54.157Z,98699.84
2023-04-26T04:39:57.097Z,98707.24
2023-04-26T04:41:00.707Z,98709.73
2023-04-26T04:42:03.467Z,98712.88
2023-04-26T04:43:06.149Z,98713.28
2023-04-26T04:44:08.722Z,98712.15
2023-04-26T04:45:14.165Z,98715.58
2023-04-26T04:46:17.663Z,98718.92
2023-04-26T04:47:20.284Z,98709.31
2023-04-26T04:48:22.832Z,98708.38
2023-04-26T04:49:25.396Z,98706.59
2023-04-26T04:50:29.462Z,98712.77
2023-04-26T04:51:32.178Z,98706.19
2023-04-26T04:52:35.812Z,98703.47
2023-04-26T04:53:38.753Z,98703.47
2023-04-26T04:54:41.432Z,98697.24
2023-04-26T04:55:44.392Z,98704.13
2023-04-26T04:56:48.547Z,98700.16
2023-04-26T04:57:52.078Z,98703.38
2023-04-26T04:58:55.669Z,98706.52
2023-04-26T04:59:58.471Z,98701.57
2023-04-26T05:01:02.400Z,98706.64
2023-04-26T05:02:06.575Z,98701.83
2023-04-26T05:03:09.346Z,98702.88
2023-04-26T05:04:11.976Z,98700.36
2023-04-26T05:05:14.807Z,98694.71
2023-04-26T05:06:17.928Z,98688.87
2023-04-26T05:07:20.476Z,98693.77
2023-04-26T05:08:24.788Z,98688.87
2023-04-26T05:09:27.498Z,98693.89
2023-04-26T05:10:31.069Z,98697.32
2023-04-26T05:11:34.729Z,98698.87
2023-04-26T05:12:38.918Z,98697.00
2023-04-26T05:13:42.283Z,98702.21
2023-04-26T05:14:45.500Z,98706.89
2023-04-26T05:15:47.801Z,98706.81
2023-04-26T05:16:50.472Z,98703.66
2023-04-26T05:17:54.774Z,98697.50
2023-04-26T05:18:59.042Z,98696.77
2023-04-26T05:20:04.462Z,98699.17
2023-04-26T05:21:06.942Z,98703.66
2023-04-26T05:22:09.821Z,98700.73
2023-04-26T05:23:12.135Z,98702.84
2023-04-26T05:24:15.158Z,98707.64
2023-04-26T05:25:18.229Z,98703.47
2023-04-26T05:26:24.057Z,98700.73
2023-04-26T05:27:37.187Z,98703.34
2023-04-26T05:28:42.138Z,98711.80
2023-04-26T05:29:56.563Z,98715.02
2023-04-26T05:31:01.938Z,98711.78
2023-04-26T05:32:21.305Z,98714.27
2023-04-26T05:33:28.585Z,98715.33
2023-04-26T05:34:32.901Z,98718.44
2023-04-26T05:35:36.491Z,98713.66
2023-04-26T05:36:39.056Z,98715.53
2023-04-26T05:37:41.294Z,98723.27
2023-04-26T05:38:44.490Z,98714.72
2023-04-26T05:39:47.189Z,98721.41
2023-04-26T05:40:50.085Z,98714.09
2023-04-26T05:41:53.229Z,98717.00
2023-04-26T05:42:55.774Z,98719.91
2023-04-26T05:44:00.604Z,98720.29
2023-04-26T05:45:03.430Z,98719.47
2023-04-26T05:46:06.229Z,98722.88
2023-04-26T05:47:09.716Z,98717.41
2023-04-26T05:48:13.099Z,98713.09
2023-04-26T05:49:15.683Z,98723.05
2023-04-26T05:50:18.429Z,98723.05
2023-04-26T05:51:21.733Z,98729.05
2023-04-26T05:52:24.009Z,98729.95
2023-04-26T05:53:27.629Z,98725.48
2023-04-26T05:54:30.542Z,98725.48
2023-04-26T05:55:33.043Z,98731.84
2023-04-26T05:56:35.984Z,98733.81
2023-04-26T05:57:38.711Z,98731.34
2023-04-26T05:58:43.274Z,98730.91
2023-04-26T05:59:47.838Z,98721.11
2023-04-26T06:00:50.863Z,98721.94
2023-04-26T06:01:54.329Z,98719.58
2023-04-26T06:02:57.137Z,98725.70
2023-04-26T06:04:01.384Z,98728.11
2023-04-26T06:05:07.547Z,98719.50
2023-04-26T06:06:12.230Z,98720.53
2023-04-26T06:07:16.760Z,98719.83
2023-04-26T06:08:21.219Z,98713.37
2023-04-26T06:09:25.755Z,98726.73
2023-04-26T06:10:28.629Z,98721.05
2023-04-26T06:11:31.796Z,98721.27
2023-04-26T06:12:34.329Z,98726.97
2023-04-26T06:13:36.820Z,98722.81
2023-04-26T06:14:39.755Z,98725.91
2023-04-26T06:15:43.827Z,98732.30
2023-04-26T06:16:47.777Z,98725.52
2023-04-26T06:17:52.441Z,98721.12
2023-04-26T06:18:56.121Z,98718.66
2023-04-26T06:19:59.548Z,98720.59
2023-04-26T06:21:01.826Z,98721.81
2023-04-26T06:22:04.283Z,98719.09
2023-04-26T06:23:06.610Z,98725.19
2023-04-26T06:24:09.671Z,98723.42
2023-04-26T06:25:12.680Z,98725.45
2023-04-26T06:26:15.485Z,98720.69
2023-04-26T06:27:17.982Z,98720.94
2023-04-26T06:28:22.226Z,98719.52
2023-04-26T06:29:24.909Z,98716.44
2023-04-26T06:30:27.390Z,98720.59
2023-04-26T06:31:30.126Z,98723.08
2023-04-26T06:32:33.639Z,98720.84
2023-04-26T06:33:35.740Z,98724.88
2023-04-26T06:34:38.265Z,98725.70
2023-04-26T06:35:41.549Z,98727.84
2023-04-26T06:36:45.497Z,98728.91
2023-04-26T06:37:48.489Z,98720.34
2023-04-26T06:38:51.029Z,98729.64
2023-04-26T06:39:53.991Z,98716.90
2023-04-26T06:40:57.070Z,98708.94
2023-04-26T06:41:59.418Z,98708.94
2023-04-26T06:43:04.202Z,98713.09
2023-04-26T06:44:14.228Z,98718.07
2023-04-26T06:45:18.457Z,98720.69
2023-04-26T06:46:22.044Z,98726.98
2023-04-26T06:47:29.434Z,98723.91
2023-04-26T06:48:32.670Z,98720.22
2023-04-26T06:49:35.478Z,98717.38
2023-04-26T06:50:39.439Z,98718.33
2023-04-26T06:51:42.770Z,98722.70
2023-04-26T06:52:45.552Z,98720.69
2023-04-26T06:53:48.760Z,98715.93
2023-04-26T06:54:57.105Z,98712.72
2023-04-26T06:55:57.247Z,98717.34
2023-04-26T06:57:01.510Z,98719.87
2023-04-26T06:58:04.141Z,98722.58
2023-04-26T06:59:07.760Z,98721.54
2023-04-26T07:00:12.205Z,98716.14
2023-04-26T07:01:14.322Z,98724.03
2023-04-26T07:02:17.752Z,98718.32
2023-04-26T07:03:21.202Z,98717.12
2023-04-26T07:04:24.099Z,98716.75
2023-04-26T07:05:26.623Z,98724.50
2023-04-26T07:06:31.591Z,98722.95
2023-04-26T07:07:33.756Z,98724.03
2023-04-26T07:08:35.677Z,98732.59
2023-04-26T07:09:38.600Z,98726.41
2023-04-26T07:10:41.596Z,98725.22
2023-04-26T07:11:46.905Z,98718.33
2023-04-26T07:12:49.116Z,98720.11
2023-04-26T07:13:52.237Z,98724.54
2023-04-26T07:14:54.954Z,98719.30
2023-04-26T07:15:57.213Z,98731.91
2023-04-26T07:17:01.627Z,98732.95
2023-04-26T07:18:05.187Z,98737.24
2023-04-26T07:19:08.239Z,98729.98
2023-04-26T07:20:13.978Z,98725.20
2023-04-26T07:21:17.148Z,98731.48
2023-04-26T07:22:19.530Z,98733.41
2023-04-26T07:23:21.775Z,98738.98
2023-04-26T07:24:24.196Z,98728.50
2023-04-26T07:25:26.420Z,98737.11
2023-04-26T07:26:30.363Z,98734.00
2023-04-26T07:27:32.684Z,98733.95
2023-04-26T07:28:35.040Z,98738.28
2023-04-26T07:29:38.605Z,98734.00
2023-04-26T07:30:41.516Z,98731.02
2023-04-26T07:31:43.880Z,98730.03
2023-04-26T07:32:46.192Z,98734.33
2023-04-26T07:33:49.200Z,98733.50
2023-04-26T07:34:51.661Z,98729.08
2023-04-26T07:35:59.756Z,98736.81
2023-04-26T07:37:03.280Z,98737.30
2023-04-26T07:38:08.059Z,98732.16
2023-04-26T07:39:13.454Z,98735.58
2023-04-26T07:40:16.609Z,98737.03
2023-04-26T07:41:18.888Z,98731.06
2023-04-26T07:42:20.893Z,98729.73
2023-04-26T07:43:23.634Z,98730.90
2023-04-26T07:44:25.945Z,98734.58
2023-04-26T07:45:28.298Z,98737.67
2023-04-26T07:46:33.705Z,98733.25
2023-04-26T07:47:36.746Z,98731.42
2023-04-26T07:48:39.200Z,98730.26
2023-04-26T07:49:42.221Z,98734.34
2023-04-26T07:50:44.694Z,98738.05
2023-04-26T07:51:50.891Z,98738.65
2023-04-26T07:52:53.289Z,98728.17
2023-04-26T07:53:56.495Z,98738.63
2023-04-26T07:54:59.017Z,98726.34
2023-04-26T07:56:01.801Z,98741.75
2023-04-26T07:57:04.229Z,98738.41
2023-04-26T07:58:07.568Z,98739.72
2023-04-26T07:59:10.512Z,98734.34
2023-04-26T08:00:15.271Z,98735.50
2023-04-26T08:01:18.041Z,98739.34
2023-04-26T08:02:29.679Z,98738.56
2023-04-26T08:03:28.126Z,98733.59
2023-04-26T08:04:33.524Z,98733.98
2023-04-26T08:05:36.497Z,98739.55
2023-04-26T08:06:39.740Z,98740.65
2023-04-26T08:07:42.746Z,98742.42
2023-04-26T08:08:46.976Z,98742.05
2023-04-26T08:09:49.257Z,98742.27
2023-04-26T08:10:52.016Z,98741.32
2023-04-26T08:11:54.854Z,98744.82
2023-04-26T08:12:57.842Z,98749.30
2023-04-26T08:14:00.230Z,98746.16
2023-04-26T08:15:04.784Z,98751.73
2023-04-26T08:16:07.368Z,98752.17
2023-04-26T08:17:09.914Z,98747.31
2023-04-26T08:18:12.849Z,98744.50
2023-04-26T08:19:15.209Z,98741.78
2023-04-26T08:20:17.660Z,98746.51
2023-04-26T08:21:20.268Z,98756.13
2023-04-26T08:22:22.859Z,98750.89
2023-04-26T08:23:25.303Z,98751.66
2023-04-26T08:24:27.744Z,98743.87
2023-04-26T08:25:30.307Z,98753.27
2023-04-26T08:26:32.496Z,98755.42
2023-04-26T08:27:36.176Z,98746.78
2023-04-26T08:28:38.590Z,98749.70
2023-04-26T08:29:40.918Z,98745.16
2023-04-26T08:30:43.600Z,98756.09
2023-04-26T08:31:46.079Z,98751.55
2023-04-26T08:32:49.074Z,98749.64
2023-04-26T08:33:51.630Z,98755.98
2023-04-26T08:34:54.911Z,98745.02
2023-04-26T08:36:00.585Z,98749.84
2023-04-26T08:37:02.764Z,98753.42
2023-04-26T08:38:05.847Z,98744.55
2023-04-26T08:39:09.138Z,98746.41
2023-04-26T08:40:12.126Z,98742.64
2023-04-26T08:41:18.367Z,98743.11
2023-04-26T08:42:23.796Z,98755.45
2023-04-26T08:43:27.387Z,98747.29
2023-04-26T08:44:33.383Z,98754.27
2023-04-26T08:45:38.458Z,98755.25
2023-04-26T08:46:59.402Z,98757.88
2023-04-26T08:48:05.642Z,98749.64
2023-04-26T08:50:36.402Z,98744.46
2023-04-26T08:51:39.609Z,98749.50
2023-04-26T08:52:43.962Z,98749.40
2023-04-26T08:53:49.014Z,98759.45
2023-04-26T08:54:53.914Z,98751.81
2023-04-26T08:55:57.813Z,98751.58
2023-04-26T08:57:01.885Z,98757.44
2023-04-26T08:58:07.473Z,98748.69
2023-04-26T08:59:10.334Z,98751.44
2023-04-26T09:00:16.334Z,98752.97
2023-04-26T09:01:21.573Z,98748.70
2023-04-26T09:02:24.213Z,98748.17
2023-04-26T09:03:27.733Z,98749.24
2023-04-26T09:04:31.169Z,98741.80
2023-04-26T09:05:34.472Z,98742.05
2023-04-26T09:06:38.339Z,98741.63
2023-04-26T09:07:47.975Z,98741.69
2023-04-26T09:08:53.124Z,98736.07
2023-04-26T09:09:57.788Z,98740.52
2023-04-26T09:11:01.214Z,98744.67
2023-04-26T09:12:03.720Z,98739.11
2023-04-26T09:13:07.204Z,98738.09
2023-04-26T09:14:09.580Z,98739.47
2023-04-26T09:15:13.565Z,98731.75
2023-04-26T09:16:16.211Z,98731.90
2023-04-26T09:17:25.837Z,98735.59
2023-04-26T09:18:31.190Z,98733.67
2023-04-26T09:19:38.089Z,98733.41
2023-04-26T09:20:40.493Z,98732.00
2023-04-26T09:21:45.968Z,98725.79
2023-04-26T09:22:51.375Z,98730.69
2023-04-26T09:23:58.517Z,98730.98
2023-04-26T09:25:03.420Z,98733.80
2023-04-26T09:26:20.853Z,98728.00
2023-04-26T09:28:37.783Z,98725.02
2023-04-26T09:29:41.143Z,98728.81
2023-04-26T09:30:46.049Z,98736.12
2023-04-26T09:31:50.337Z,98735.84
2023-04-26T09:32:57.647Z,98723.20
2023-04-26T09:34:04.025Z,98719.38
2023-04-26T09:35:08.957Z,98739.73
2023-04-26T09:36:12.873Z,98736.69
2023-04-26T09:37:16.201Z,98737.25
2023-04-26T09:38:18.835Z,98735.59
2023-04-26T09:39:32.468Z,98738.81
2023-04-26T09:40:41.678Z,98744.06
2023-04-26T09:41:44.845Z,98738.77
2023-04-26T09:42:50.039Z,98738.20
2023-04-26T09:43:53.328Z,98739.77
2023-04-26T09:44:59.361Z,98745.83
2023-04-26T09:46:01.662Z,98734.62
2023-04-26T09:47:11.996Z,98742.05
2023-04-26T09:48:24.758Z,98751.88
2023-04-26T09:49:36.482Z,98753.05
2023-04-26T09:50:39.252Z,98746.33
2023-04-26T09:51:45.072Z,98751.08
2023-04-26T09:52:47.460Z,98750.63
2023-04-26T09:53:50.387Z,98753.88
2023-04-26T09:54:54.227Z,98750.98
2023-04-26T09:55:58.106Z,98758.03
2023-04-26T09:57:02.901Z,98758.03
2023-04-26T09:58:10.731Z,98760.65
2023-04-26T09:59:13.907Z,98763.00
2023-04-26T10:00:17.307Z,98763.23
2023-04-26T10:01:19.880Z,98759.20
2023-04-26T10:02:26.748Z,98759.92
2023-04-26T10:03:30.663Z,98762.55
2023-04-26T10:04:33.250Z,98761.95
2023-04-26T10:05:36.846Z,98759.44
2023-04-26T10:06:40.169Z,98765.76
2023-04-26T10:07:43.725Z,98763.40
2023-04-26T10:08:46.601Z,98767.92
2023-04-26T10:09:50.902Z,98758.52
2023-04-26T10:10:57.182Z,98761.37
2023-04-26T10:12:01.034Z,98765.89
2023-04-26T10:13:05.458Z,98768.02
2023-04-26T10:14:08.428Z,98771.22
2023-04-26T10:15:13.290Z,98773.02
2023-04-26T10:16:16.914Z,98753.38
2023-04-26T10:17:23.165Z,98766.44
2023-04-26T10:18:26.090Z,98764.86
2023-04-26T10:19:30.239Z,98769.89
2023-04-26T10:20:33.413Z,98769.89
2023-04-26T10:21:39.455Z,98759.03
2023-04-26T10:22:47.761Z,98777.73
2023-04-26T10:23:51.034Z,98772.80
2023-04-26T10:24:55.468Z,98766.32
2023-04-26T10:25:58.445Z,98766.59
2023-04-26T10:27:02.712Z,98766.59
2023-04-26T10:28:06.850Z,98764.69
2023-04-26T10:29:09.417Z,98766.94
2023-04-26T10:30:17.709Z,98766.36
2023-04-26T10:31:20.243Z,98761.93
2023-04-26T10:32:23.468Z,98766.77
2023-04-26T10:33:26.665Z,98765.80
2023-04-26T10:34:33.434Z,98767.39
2023-04-26T10:35:37.626Z,98770.12
2023-04-26T10:36:43.653Z,98764.63
2023-04-26T10:38:05.115Z,98771.16
2023-04-26T10:39:21.721Z,98763.76
2023-04-26T10:40:30.252Z,98765.99
2023-04-26T10:41:35.444Z,98769.36
2023-04-26T10:42:41.426Z,98766.45
2023-04-26T10:43:43.177Z,98756.66
2023-04-26T10:44:45.594Z,98768.01
2023-04-26T10:45:49.905Z,98760.10
2023-04-26T10:46:52.940Z,98760.80
2023-04-26T10:48:19.933Z,98765.50
2023-04-26T10:49:24.980Z,98760.66
2023-04-26T10:50:27.521Z,98758.86
2023-04-26T10:51:31.324Z,98758.75
2023-04-26T10:52:34.747Z,98764.36
2023-04-26T10:53:52.755Z,98755.30
2023-04-26T10:54:58.776Z,98761.73
2023-04-26T10:56:01.468Z,98757.86
2023-04-26T10:57:03.839Z,98754.69
2023-04-26T10:58:30.615Z,98772.14
2023-04-26T10:59:43.561Z,98760.13
2023-04-26T11:00:38.364Z,98755.02
2023-04-26T11:01:40.863Z,98763.57
2023-04-26T11:03:06.795Z,98766.50
2023-04-26T11:04:11.534Z,98760.27
2023-04-26T11:05:35.556Z,98764.01
2023-04-26T11:06:49.195Z,98766.08
2023-04-26T11:07:54.934Z,98770.09
2023-04-26T11:09:00.077Z,98762.70
2023-04-26T11:10:07.933Z,98768.69
2023-04-26T11:11:11.602Z,98768.80
2023-04-26T11:12:16.015Z,98765.59
2023-04-26T11:13:21.205Z,98764.53
2023-04-26T11:14:25.913Z,98766.19
2023-04-26T11:15:30.680Z,98771.84
2023-04-26T11:16:33.922Z,98774.91
2023-04-26T11:17:40.604Z,98768.37
2023-04-26T11:18:47.193Z,98756.98
2023-04-26T11:19:50.385Z,98766.77
2023-04-26T11:20:52.748Z,98767.03
2023-04-26T11:21:56.237Z,98769.58
2023-04-26T11:22:59.106Z,98767.48
2023-04-26T11:24:02.055Z,98776.88
2023-04-26T11:25:05.351Z,98778.55
2023-04-26T11:26:09.158Z,98766.58
2023-04-26T11:27:12.210Z,98766.58
2023-04-26T11:28:14.625Z,98765.42
2023-04-26T11:29:20.831Z,98763.95
2023-04-26T11:30:24.142Z,98766.63
2023-04-26T11:31:28.031Z,98754.27
2023-04-26T11:32:31.451Z,98755.09
2023-04-26T11:33:34.834Z,98768.97
2023-04-26T11:34:40.082Z,98753.92
2023-04-26T11:35:44.529Z,98762.66
2023-04-26T11:36:46.902Z,98753.99
2023-04-26T11:37:51.578Z,98753.99
2023-04-26T11:38:55.054Z,98762.62
2023-04-26T11:39:57.902Z,98759.28
2023-04-26T11:41:03.670Z,98760.09
2023-04-26T11:42:11.123Z,98761.48
2023-04-26T11:43:14.777Z,98768.02
2023-04-26T11:44:20.582Z,98759.14
2023-04-26T11:45:22.932Z,98765.37
2023-04-26T11:46:26.584Z,98765.61
2023-04-26T11:47:31.305Z,98768.43
2023-04-26T11:48:35.923Z,98760.13
2023-04-26T11:49:38.899Z,98767.76
2023-04-26T11:50:44.183Z,98770.17
2023-04-26T11:51:49.148Z,98769.94
2023-04-26T11:52:54.562Z,98766.36
2023-04-26T11:54:00.993Z,98773.14
2023-04-26T11:55:07.702Z,98764.69
2023-04-26T11:56:18.152Z,98766.36
2023-04-26T11:57:20.636Z,98758.02
2023-04-26T11:58:22.952Z,98761.36
2023-04-26T11:59:30.095Z,98763.97
2023-04-26T12:00:32.619Z,98763.97
2023-04-26T12:01:35.220Z,98762.09
2023-04-26T12:02:38.077Z,98756.22
2023-04-26T12:03:41.663Z,98760.23
2023-04-26T12:04:44.289Z,98753.38
2023-04-26T12:05:55.709Z,98753.38
2023-04-26T12:06:58.775Z,98752.03
2023-04-26T12:08:01.304Z,98758.42
2023-04-26T12:09:05.632Z,98758.14
2023-04-26T12:10:19.640Z,98749.92
2023-04-26T12:11:21.851Z,98740.55
2023-04-26T12:12:24.266Z,98753.44
2023-04-26T12:13:27.727Z,98754.64
2023-04-26T12:14:34.069Z,98750.81
2023-04-26T12:15:36.418Z,98748.75
2023-04-26T12:16:38.900Z,98747.65
2023-04-26T12:17:43.105Z,98746.41
2023-04-26T12:18:51.802Z,98753.16
2023-04-26T12:19:55.511Z,98744.42
2023-04-26T12:21:00.241Z,98741.09
2023-04-26T12:22:03.375Z,98748.58
2023-04-26T12:23:17.023Z,98741.44
2023-04-26T12:24:24.085Z,98744.23
2023-04-26T12:25:26.458Z,98745.87
2023-04-26T12:26:45.027Z,98745.87
2023-04-26T12:27:48.003Z,98745.08
2023-04-26T12:28:51.384Z,98746.32
2023-04-26T12:29:53.809Z,98745.61
2023-04-26T12:30:56.379Z,98747.90
2023-04-26T12:31:59.836Z,98747.90
2023-04-26T12:33:15.708Z,98741.41
2023-04-26T12:34:08.124Z,98745.63